Time;durP1;ratioP1;P1;durP2;ratioP2;P2;SDS_P1;SDS_P2;PMS_P1;PMS_P2;Temp;Humidity;BMP_temperature;BMP_pressure;BME280_temperature;BME280_humidity;BME280_pressure;Samples;Min_cycle;Max_cycle;Signal;HPM_P1;HPM_P2
2022/03/26 00:01:55;;;;;;;10.05;5.47;;;10.60;78.50;;;;;;20663794;28;20065;-60
2022/03/26 00:11:57;;;;;;;8.73;4.72;;;10.50;78.00;;;;;;20665670;28;20054;-59
2022/03/26 00:21:58;;;;;;;9.85;5.18;;;10.50;77.80;;;;;;20672020;28;20483;-60
2022/03/26 00:32:02;;;;;;;9.40;5.50;;;10.50;77.60;;;;;;20676872;28;20050;-60
2022/03/26 00:42:03;;;;;;;7.13;4.18;;;10.40;77.20;;;;;;20676488;28;20066;-58
2022/03/26 00:52:05;;;;;;;8.88;3.97;;;10.30;76.80;;;;;;20675336;28;20058;-59
2022/03/26 01:02:07;;;;;;;11.35;4.15;;;10.30;76.70;;;;;;20679003;28;20058;-60
2022/03/26 01:12:09;;;;;;;9.98;4.13;;;10.20;76.30;;;;;;20674012;28;20046;-58
2022/03/26 01:22:11;;;;;;;5.65;3.05;;;10.20;75.90;;;;;;20673871;28;20529;-59
2022/03/26 01:32:13;;;;;;;10.98;3.20;;;10.20;75.40;;;;;;20671557;28;20050;-62
2022/03/26 01:42:15;;;;;;;9.10;3.08;;;10.20;75.30;;;;;;20671245;28;20094;-60
2022/03/26 01:52:18;;;;;;;5.60;2.88;;;10.20;74.70;;;;;;20671877;28;20398;-60
2022/03/26 02:02:19;;;;;;;7.50;2.72;;;10.10;74.50;;;;;;20669823;28;20054;-59
2022/03/26 02:12:26;;;;;;;8.35;2.08;;;10.00;74.20;;;;;;20670074;28;20515;-60
2022/03/26 02:22:31;;;;;;;11.53;2.80;;;10.00;74.00;;;;;;20668351;28;20058;-59
2022/03/26 02:32:33;;;;;;;10.50;2.20;;;10.10;74.00;;;;;;20668958;28;20373;-60
2022/03/26 02:42:36;;;;;;;9.63;2.25;;;10.00;73.50;;;;;;20666146;28;20046;-61
2022/03/26 02:52:41;;;;;;;12.45;2.85;;;10.00;73.40;;;;;;20666202;28;20050;-61
2022/03/26 03:02:45;;;;;;;16.00;2.92;;;10.00;73.10;;;;;;20665672;28;20050;-60
2022/03/26 03:12:47;;;;;;;8.25;2.15;;;9.90;72.90;;;;;;20665253;28;20436;-59
2022/03/26 03:22:50;;;;;;;11.07;2.38;;;9.80;72.80;;;;;;20665681;28;20704;-60
2022/03/26 03:32:53;;;;;;;9.93;2.33;;;9.80;72.70;;;;;;20664721;28;20065;-60
2022/03/26 03:42:55;;;;;;;13.43;3.17;;;9.80;72.60;;;;;;20665239;28;20073;-60
2022/03/26 03:52:57;;;;;;;8.85;2.17;;;9.80;72.40;;;;;;20666621;28;20046;-60
2022/03/26 04:03:00;;;;;;;5.43;1.77;;;9.80;72.20;;;;;;20679086;28;20072;-59
2022/03/26 04:13:02;;;;;;;8.82;2.60;;;9.80;72.20;;;;;;20679616;28;20050;-59
2022/03/26 04:23:04;;;;;;;5.50;2.17;;;9.90;71.90;;;;;;20677727;28;20059;-60
2022/03/26 04:33:07;;;;;;;8.00;2.15;;;9.90;71.90;;;;;;20676839;28;20049;-60
2022/03/26 04:43:09;;;;;;;8.68;2.38;;;9.90;71.60;;;;;;20676119;28;20054;-60
2022/03/26 04:53:13;;;;;;;8.93;2.50;;;9.90;71.50;;;;;;20676214;28;20046;-59
2022/03/26 05:03:15;;;;;;;13.45;2.65;;;9.90;71.30;;;;;;20674757;28;20332;-60
2022/03/26 05:13:17;;;;;;;11.07;2.55;;;10.00;71.20;;;;;;20674350;28;20074;-60
2022/03/26 05:23:19;;;;;;;20.80;6.90;;;10.00;71.00;;;;;;20673355;28;20138;-61
2022/03/26 05:33:22;;;;;;;9.10;2.55;;;10.00;70.90;;;;;;20673138;28;20046;-60
2022/03/26 05:43:24;;;;;;;13.05;2.63;;;10.20;70.70;;;;;;20672302;28;20054;-60
2022/03/26 05:53:26;;;;;;;8.85;2.67;;;10.20;70.70;;;;;;20670863;28;20141;-59
2022/03/26 06:03:28;;;;;;;9.00;2.30;;;10.20;70.40;;;;;;20669999;28;20054;-61
2022/03/26 06:13:30;;;;;;;10.70;2.33;;;10.20;70.40;;;;;;20687167;28;20510;-59
2022/03/26 06:23:32;;;;;;;13.25;2.30;;;10.30;70.40;;;;;;20667909;28;20058;-60
2022/03/26 06:33:35;;;;;;;8.30;2.50;;;10.30;70.20;;;;;;20668059;28;20046;-60
2022/03/26 06:43:40;;;;;;;9.85;2.50;;;10.40;70.30;;;;;;20667439;28;20050;-59
2022/03/26 06:53:41;;;;;;;13.32;2.47;;;10.30;70.00;;;;;;20667738;28;20046;-58
2022/03/26 07:03:43;;;;;;;12.55;2.50;;;10.20;70.40;;;;;;20667113;28;20109;-59
2022/03/26 07:13:44;;;;;;;10.10;2.35;;;10.20;70.60;;;;;;20666799;28;20427;-58
2022/03/26 07:23:45;;;;;;;8.27;2.40;;;10.20;70.50;;;;;;20665889;28;20069;-59
2022/03/26 07:33:47;;;;;;;8.75;2.42;;;10.10;70.80;;;;;;20692287;28;20046;-60
2022/03/26 07:43:48;;;;;;;8.65;2.88;;;10.10;71.60;;;;;;20681279;28;20479;-60
2022/03/26 07:53:50;;;;;;;10.30;2.53;;;10.20;71.90;;;;;;20680741;28;20054;-61
2022/03/26 08:03:54;;;;;;;9.80;2.35;;;10.10;72.20;;;;;;20679772;28;20057;-61
2022/03/26 08:13:55;;;;;;;12.05;3.25;;;10.20;72.30;;;;;;20678979;28;20043;-61
2022/03/26 08:23:57;;;;;;;9.80;2.92;;;10.30;72.20;;;;;;20678025;28;20145;-60
2022/03/26 08:34:00;;;;;;;10.38;2.78;;;10.20;72.60;;;;;;20677008;28;20454;-61
2022/03/26 08:44:01;;;;;;;12.25;3.25;;;10.20;73.00;;;;;;20676723;28;20428;-59
2022/03/26 08:54:03;;;;;;;10.93;3.20;;;10.40;73.10;;;;;;20676702;28;20050;-60
2022/03/26 09:04:06;;;;;;;14.57;3.08;;;10.30;73.20;;;;;;20676526;28;20410;-59
2022/03/26 09:14:08;;;;;;;11.82;3.05;;;10.20;73.50;;;;;;20674115;28;20046;-59
2022/03/26 09:24:09;;;;;;;6.72;2.47;;;10.30;73.60;;;;;;20673915;28;20062;-60
2022/03/26 09:34:11;;;;;;;7.88;2.70;;;10.30;73.70;;;;;;20673168;28;20089;-61
2022/03/26 09:44:13;;;;;;;6.60;2.70;;;10.30;73.70;;;;;;20686355;28;20086;-61
2022/03/26 09:54:15;;;;;;;7.10;3.10;;;10.40;73.50;;;;;;20670928;28;20402;-60
2022/03/26 10:04:20;;;;;;;9.60;2.97;;;10.60;73.20;;;;;;20671785;28;20054;-60
2022/03/26 10:14:23;;;;;;;5.25;3.13;;;10.70;73.00;;;;;;20670414;28;20046;-61
2022/03/26 10:24:25;;;;;;;10.73;2.70;;;10.90;72.70;;;;;;20668508;28;20046;-63
2022/03/26 10:34:27;;;;;;;7.38;2.65;;;11.30;72.00;;;;;;20668618;28;20046;-63
2022/03/26 10:44:30;;;;;;;7.43;2.97;;;11.80;71.30;;;;;;20669189;28;20050;-62
2022/03/26 10:54:33;;;;;;;7.00;2.53;;;11.90;71.40;;;;;;20669768;28;20057;-63
2022/03/26 11:04:35;;;;;;;11.70;3.33;;;12.20;70.90;;;;;;20666494;28;20418;-62
2022/03/26 11:14:40;;;;;;;5.75;2.30;;;12.30;71.00;;;;;;20665975;28;20054;-58
2022/03/26 11:25:15;;;;;;;8.05;2.75;;;13.00;70.00;;;;;;20666003;28;20133;-66
2022/03/26 11:35:18;;;;;;;6.88;2.92;;;13.50;67.60;;;;;;20664636;28;20047;-61
2022/03/26 11:55:43;;;;;;;9.05;2.97;;;13.40;67.90;;;;;;20666188;28;20081;-58
2022/03/26 12:16:07;;;;;;;9.68;3.03;;;13.70;66.80;;;;;;20668705;28;20046;-62
2022/03/26 12:26:09;;;;;;;7.55;3.13;;;13.80;66.20;;;;;;20677704;28;20092;-60
2022/03/26 12:36:14;;;;;;;8.52;4.15;;;13.90;66.00;;;;;;20678793;28;20046;-61
2022/03/26 12:46:16;;;;;;;11.00;3.72;;;14.40;65.20;;;;;;20677898;28;20050;-57
2022/03/26 12:56:18;;;;;;;9.15;3.30;;;14.20;65.20;;;;;;20677287;28;20046;-59
2022/03/26 13:06:26;;;;;;;12.07;5.17;;;14.20;65.80;;;;;;20677435;28;20562;-61
2022/03/26 13:16:33;;;;;;;10.57;4.57;;;14.30;65.50;;;;;;20674854;28;20042;-59
2022/03/26 13:26:58;;;;;;;8.63;3.60;;;14.30;65.00;;;;;;20671892;28;20058;-57
2022/03/26 13:37:17;;;;;;;6.65;3.35;;;14.30;64.10;;;;;;20673601;28;20149;-59
2022/03/26 13:47:21;;;;;;;;;;;14.30;64.40;;;;;;20673408;28;20400;-58
2022/03/26 13:57:35;;;;;;;8.43;4.22;;;14.80;62.60;;;;;;20671686;28;20040;-59
2022/03/26 14:07:36;;;;;;;12.38;3.60;;;15.00;62.20;;;;;;20671400;28;20061;-58
2022/03/26 14:17:38;;;;;;;10.45;3.88;;;14.90;61.80;;;;;;20670053;28;20077;-57
2022/03/26 14:27:40;;;;;;;11.40;3.67;;;14.90;61.50;;;;;;20668932;28;20108;-58
2022/03/26 14:37:42;;;;;;;9.95;2.85;;;14.90;61.40;;;;;;20670080;28;20554;-61
2022/03/26 14:47:47;;;;;;;10.38;2.92;;;15.10;60.50;;;;;;20667687;28;20092;-59
2022/03/26 14:57:50;;;;;;;6.43;2.47;;;15.20;60.30;;;;;;20667438;28;20046;-58
2022/03/26 15:07:52;;;;;;;6.78;2.20;;;15.40;59.50;;;;;;20666856;28;20050;-57
2022/03/26 15:17:53;;;;;;;8.90;2.58;;;15.40;59.30;;;;;;20667304;28;20439;-59
2022/03/26 15:27:57;;;;;;;7.88;2.90;;;15.40;59.20;;;;;;20665789;28;20054;-60
2022/03/26 15:37:58;;;;;;;8.38;3.35;;;15.40;59.90;;;;;;20665810;28;20545;-59
2022/03/26 15:48:00;;;;;;;12.63;3.17;;;15.50;60.40;;;;;;20664873;28;20057;-59
2022/03/26 15:58:02;;;;;;;10.90;3.35;;;15.50;61.00;;;;;;20681594;28;20475;-57
2022/03/26 16:08:04;;;;;;;15.27;3.58;;;15.60;61.00;;;;;;20679707;28;20069;-59
2022/03/26 16:18:07;;;;;;;8.13;2.35;;;15.60;60.90;;;;;;20681469;28;20049;-58
2022/03/26 16:28:08;;;;;;;6.68;2.10;;;15.40;60.90;;;;;;20679430;28;20054;-60
2022/03/26 16:38:10;;;;;;;5.68;2.00;;;15.40;61.00;;;;;;20675981;28;20054;-59
2022/03/26 16:48:13;;;;;;;5.50;1.70;;;15.40;60.40;;;;;;20677324;28;20046;-60
2022/03/26 16:58:14;;;;;;;5.25;1.80;;;15.20;60.50;;;;;;20674739;28;20054;-59
2022/03/26 17:08:16;;;;;;;5.07;1.98;;;15.20;60.80;;;;;;20675744;28;20054;-59
2022/03/26 17:18:18;;;;;;;11.75;1.85;;;15.00;60.90;;;;;;20672756;28;20089;-58
2022/03/26 17:28:19;;;;;;;6.35;2.88;;;14.90;61.30;;;;;;20672846;28;20089;-58
2022/03/26 17:38:24;;;;;;;6.78;2.90;;;14.80;61.90;;;;;;20672593;28;20081;-59
2022/03/26 17:48:25;;;;;;;5.97;1.70;;;14.70;62.70;;;;;;20672974;28;20089;-58
2022/03/26 17:58:27;;;;;;;13.02;5.07;;;14.60;63.60;;;;;;20671389;28;20050;-58
2022/03/26 18:08:29;;;;;;;6.45;2.20;;;14.60;64.30;;;;;;20669821;28;20050;-58
2022/03/26 18:18:31;;;;;;;4.32;1.63;;;14.50;65.10;;;;;;20669547;28;20065;-58
2022/03/26 18:28:33;;;;;;;4.90;2.08;;;14.20;66.30;;;;;;20669373;28;20054;-58
2022/03/26 18:38:34;;;;;;;7.78;2.72;;;14.10;66.80;;;;;;20668446;28;20074;-62
2022/03/26 18:48:37;;;;;;;4.18;2.47;;;13.80;67.50;;;;;;20667454;28;20046;-59
2022/03/26 18:58:39;;;;;;;5.45;1.98;;;13.70;67.80;;;;;;20668956;28;20046;-61
2022/03/26 19:08:40;;;;;;;4.13;2.22;;;13.70;67.90;;;;;;20666929;28;20050;-59
2022/03/26 19:18:42;;;;;;;4.78;2.42;;;13.50;68.10;;;;;;20665688;28;20042;-59
2022/03/26 19:39:17;;;;;;;4.55;1.67;;;13.10;68.60;;;;;;20592068;28;20435;-59
2022/03/26 19:49:18;;;;;;;5.05;1.75;;;12.90;69.10;;;;;;20591874;28;20059;-58
2022/03/26 19:59:20;;;;;;;3.70;1.58;;;12.80;69.40;;;;;;20590995;28;20050;-59
2022/03/26 20:09:21;;;;;;;6.28;2.20;;;12.70;69.80;;;;;;20620504;28;20046;-59
2022/03/26 20:19:27;;;;;;;5.45;2.00;;;12.70;70.10;;;;;;20679307;28;20054;-59
2022/03/26 20:29:29;;;;;;;5.63;1.80;;;12.70;70.20;;;;;;20678279;28;20062;-59
2022/03/26 20:39:30;;;;;;;6.95;2.25;;;12.70;70.30;;;;;;20674223;28;20506;-60
2022/03/26 20:49:31;;;;;;;5.13;2.03;;;12.70;70.50;;;;;;20677285;28;20065;-59
2022/03/26 20:59:33;;;;;;;5.47;2.60;;;12.70;70.70;;;;;;20678101;28;20050;-59
2022/03/26 21:09:34;;;;;;;9.48;2.10;;;12.80;70.90;;;;;;20678598;28;20548;-62
2022/03/26 21:19:36;;;;;;;6.05;2.20;;;12.80;71.10;;;;;;20675235;28;20483;-59
2022/03/26 21:29:37;;;;;;;3.22;1.98;;;12.70;71.20;;;;;;20673487;28;20058;-57
2022/03/26 21:39:38;;;;;;;5.13;2.22;;;12.70;71.40;;;;;;20671835;28;20137;-58
2022/03/26 21:49:40;;;;;;;5.90;2.10;;;12.70;71.30;;;;;;20671016;28;20561;-59
2022/03/26 21:59:41;;;;;;;8.60;2.60;;;12.70;71.20;;;;;;20675577;28;20050;-58
2022/03/26 22:09:42;;;;;;;11.15;2.58;;;12.70;71.50;;;;;;20673284;28;20047;-59
2022/03/26 22:19:44;;;;;;;6.35;2.80;;;12.60;72.10;;;;;;20668824;28;20057;-58
2022/03/26 22:29:45;;;;;;;8.65;2.75;;;12.60;73.00;;;;;;20668159;28;20066;-58
2022/03/26 22:50:07;;;;;;;6.20;2.83;;;12.40;74.50;;;;;;20668219;28;20050;-60
2022/03/26 23:00:27;;;;;;;7.03;3.03;;;12.40;75.00;;;;;;20666869;28;20057;-59
2022/03/26 23:10:29;;;;;;;;;;;12.20;75.40;;;;;;20666952;28;20061;-57
2022/03/26 23:20:30;;;;;;;10.23;3.75;;;12.20;75.20;;;;;;20666107;28;20330;-57
2022/03/26 23:30:37;;;;;;;6.22;2.97;;;12.20;74.80;;;;;;20665345;28;20050;-59
2022/03/26 23:40:42;;;;;;;9.50;3.00;;;12.20;74.70;;;;;;20665290;28;20101;-59
2022/03/26 23:50:45;;;;;;;7.22;2.97;;;12.20;74.60;;;;;;20666038;28;20069;-57
